Crescent Lake, Oregon
Current Conditions -  °F | °C
As of 4:55 AM on Saturday 20 Dec 2014 (Local Time) from KBDN Reporting Station
Light Rain Light Rain  
Wind Chill: 33°   Ceiling: Unl
Heat Index: 37°   Visibility: 10mi
Dew Point: 36°   Wind: 6mph
Humidity: 93%   Direction: 130°SE
Pressure: 29.84"   Gusts: NA
Location:  43.51°N, 121.97°W
Report Text: KBDN 201255Z AUTO 13005KT 10SM -RA FEW025 03/02 A2984 RMK AO2
Loading
Personal Weather Stations






























Interactive Weather Map New forecast layout! Learn more

10-Day Weather Forecast

Advertisements
Track Severe Weather on mobile